Flight Track Log - Related Links

Times and Time Zones

All times are in EDT time to prevent confusion due to time zone crossing. See the MTN8324 flight status page for this flight to view local times or setup timezone preferences in your user account.


Time Position Orientation Groundspeed Altitude Reporting Facility
EDT Latitude Longitude Course Direction KTS MPH feet Rate Location/Type
Fri 04:31:46 AM 40.7194 -74.1581 342° North 136 157 1,900  Level New York Center
Fri 04:32:04 AM 40.7333 -74.1667 335° Northwest 142 163 2,100 1,308 Climbing New York TRACON
Fri 04:33:04 AM 40.7833 -74.2000 333° Northwest 184 212 3,600 1,500 Climbing New York TRACON
Fri 04:34:04 AM 40.8333 -74.2167 346° North 190 219 5,100 1,550 Climbing New York TRACON
Fri 04:35:04 AM 40.8667 -74.2500 323° Northwest 190 219 6,700 1,550 Climbing New York TRACON
Fri 04:36:04 AM 40.9167 -74.2833 333° Northwest 191 220 8,200 1,450 Climbing New York TRACON
Fri 04:37:00 AM 41.1487 -74.3790 342° North  Level FlightAware Approximate
Fri 04:37:04 AM 40.9667 -74.3167 333° Northwest 187 215 9,600  Level New York TRACON
Fri 04:38:04 AM 41.0167 -74.3333 346° North 183 211 11,000 1,200 Climbing New York TRACON
Fri 04:39:04 AM 41.0667 -74.3667 333° Northwest 187 215 12,000 641 Climbing New York TRACON
Fri 04:39:47 AM 41.0936 -74.3914 325° Northwest 210 242 12,100 58 Climbing New York Center
Fri 04:40:47 AM 41.1550 -74.4306 334° Northwest 239 275 12,100 -50 Level New York Center
Fri 04:41:47 AM 41.2181 -74.4725 333° Northwest 250 288 12,000 -50 Descending New York Center
Fri 04:42:48 AM 41.2856 -74.5150 335° Northwest 256 295 12,000  Level New York Center
Fri 04:43:46 AM 41.3508 -74.5544 336° Northwest 256 295 12,000 667 Level New York Center
Fri 04:44:45 AM 41.4122 -74.5939 334° Northwest 250 288 13,300 1,400 Climbing New York Center
Fri 04:45:46 AM 41.4433 -74.6622 301° West 216 249 14,800 1,091 Climbing New York Center
Fri 04:46:46 AM 41.4764 -74.7278 304° West 216 249 15,500 650 Climbing New York Center
Fri 04:47:46 AM 41.5097 -74.7906 305° West 216 249 16,100 300 Climbing New York Center
Fri 04:48:46 AM 41.5467 -74.8678 303° West 228 262 16,100 -50 Level New York Center
Fri 04:49:47 AM 41.5856 -74.9478 303° West 253 291 16,000 -99 Descending New York Center
Fri 04:50:47 AM 41.6225 -75.0222 304° West 267 307 15,900 -50 Descending New York Center
Fri 04:51:46 AM 41.6669 -75.1139 303° West 267 307 15,900  Level New York Center
Fri 04:52:46 AM 41.7075 -75.1997 302° West 267 307 15,900 50 Level New York Center
Fri 04:53:46 AM 41.7481 -75.2831 303° West 267 307 16,000  Climbing New York Center
Fri 04:54:47 AM 41.7847 -75.3581 303° West 272 313 15,900 -50 Descending New York Center
Fri 04:55:46 AM 41.8253 -75.4442 302° West 272 313 15,900  Level New York Center
Fri 04:56:47 AM 41.8714 -75.5367 304° West 272 313 15,900  Level New York Center
Fri 04:57:45 AM 41.9136 -75.6233 303° West 272 313 15,900  Level New York Center
Fri 04:58:46 AM 41.9539 -75.7100 302° West 272 313 15,900  Level New York Center
Fri 04:59:46 AM 41.9939 -75.7967 302° West 272 313 15,900  Level New York Center
Fri 05:00:47 AM 42.0342 -75.8806 303° West 277 319 15,900  Level New York Center
Fri 05:01:47 AM 42.0703 -75.9589 302° West 277 319 15,900 50 Level New York Center
Fri 05:02:46 AM 42.0994 -76.0533 293° West 272 313 16,000  Climbing New York Center
Fri 05:03:45 AM 42.1306 -76.1481 294° West 272 313 15,900 -50 Descending New York Center
Fri 05:04:45 AM 42.1594 -76.2428 292° West 272 313 15,900  Level New York Center
Fri 05:05:47 AM 42.1906 -76.3378 294° West 277 319 15,900  Level New York Center
Fri 05:06:45 AM 42.2236 -76.4303 296° West 277 319 15,900  Level New York Center
Fri 05:07:45 AM 42.2525 -76.5250 292° West 277 319 15,900 50 Level New York Center
Fri 05:08:45 AM 42.2831 -76.6203 293° West 277 319 16,000 49 Climbing New York Center
Fri 05:09:47 AM 42.3161 -76.7131 296° West 277 319 16,000 -50 Level New York Center
Fri 05:10:46 AM 42.3447 -76.8053 293° West 277 319 15,900 -50 Descending New York Center
Fri 05:11:47 AM 42.3753 -76.8981 294° West 277 319 15,900 45 Level New York Center
Fri 05:12:59 AM 42.4136 -77.0225 293° West 291 335 16,000 45 Climbing Cleveland Center
Fri 05:13:59 AM 42.4414 -77.1111 293° West 285 328 16,000  Level Cleveland Center
Fri 05:14:59 AM 42.4733 -77.2078 294° West 279 321 16,000  Level Cleveland Center
Fri 05:15:59 AM 42.5011 -77.3019 292° West 279 321 16,000 -200 Level Cleveland Center
Fri 05:16:59 AM 42.5331 -77.4019 293° West 279 321 15,600 -800 Descending Cleveland Center
Fri 05:17:59 AM 42.5675 -77.5158 292° West 285 328 14,400 -1,150 Descending Cleveland Center
Fri 05:18:59 AM 42.6036 -77.6183 296° West 297 342 13,300 -1,100 Descending Cleveland Center
Fri 05:19:59 AM 42.6331 -77.7131 293° West 290 334 12,200 -1,150 Descending Cleveland Center
Fri 05:20:59 AM 42.6644 -77.8103 294° West 284 327 11,000 -600 Descending Cleveland Center
Fri 05:21:59 AM 42.6919 -77.9081 291° West 284 327 11,000  Level Cleveland Center
Fri 05:22:59 AM 42.7211 -78.0058 292° West 290 334 11,000  Level Cleveland Center
Fri 05:23:59 AM 42.7525 -78.1033 294° West 290 334 11,000 -50 Level Cleveland Center
Fri 05:24:59 AM 42.7817 -78.2042 292° West 290 334 10,900 -850 Descending Cleveland Center
Fri 05:25:59 AM 42.8131 -78.3047 293° West 299 344 9,300 -1,550 Descending Cleveland Center
Fri 05:26:59 AM 42.8211 -78.4064 276° West 286 329 7,800 -1,450 Descending Cleveland Center
Fri 05:27:59 AM 42.8228 -78.4969 271° West 274 315 6,400 -1,450 Descending Cleveland Center
Fri 05:28:59 AM 42.8267 -78.5989 273° West 274 315 4,900 -1,600 Descending Cleveland Center
Fri 05:29:59 AM 42.8408 -78.7031 281° West 263 303 3,200 -1,200 Descending Cleveland Center
Fri 05:30:59 AM 42.8692 -78.7675 301° West 223 257 2,500 -759 Descending Cleveland Center
Fri 05:31:18 AM 42.8833 -78.7667 North 165 190 2,200 -975 Descending Buffalo TRACON
Fri 05:32:19 AM 42.9167 -78.7667 360° North 121 139 1,200 3,280 Descending Buffalo TRACON
Fri 05:33:59 AM 42.9631 -78.7844 344° North 120 138 11,000 5,880 Climbing Cleveland Center
Fri 05:35:00 AM 42.9404 -78.7306 109° East  Level Estimated

Login

Don't have an account? Register now (free) for customized features, flight alerts, and more!